Sidney, Nebraska
Current Conditions -  °F | °C
As of 12:53 AM on Saturday 25 Oct 2014 (Local Time) from KSNY Reporting Station
Clear Clear  
Wind Chill: 42°   Ceiling: Unl
Heat Index: 45°   Visibility: 10mi
Dew Point: 32°   Wind: 6mph
Humidity: 60%   Direction: 280°W
Pressure: 30.15"   Gusts: NA
Location:  41.14°N, 102.97°W
Report Text: KSNY 250653Z AUTO 28005KT 10SM CLR 07/00 A3015 RMK AO2 SLP175 T00720000 402830067
Loading
Personal Weather Stations






























Interactive Weather Map
Tropical Storm Tracking
New forecast layout! Learn more

10-Day Weather Forecast

Advertisements
Track Severe Weather on mobile